METAR Data
IDs: Format: Raw Decoded Include TAF

Data at: 1454 UTC 18 Aug 2019

PASD 181356Z AUTO 06004KT 10SM CLR 14/11 A3017 RMK AO2 SLP218 T01390111
PASD 181256Z AUTO 04004KT 10SM CLR 14/11 A3018 RMK AO2 SLP222 T01440106
PASD 181156Z AUTO 02005KT 10SM CLR 14/11 A3020 RMK AO2 SLP227 T01440111 10172 20139 58007
PASD 181056Z AUTO 00000KT 10SM CLR 14/12 A3021 RMK AO2 SLP231 T01390122
PASD 180856Z AUTO 00000KT 10SM CLR 15/13 A3022 RMK AO2 SLP234 T01500128 402060133 58005
PASD 180756Z AUTO 05003KT 10SM CLR 16/13 A3022 RMK AO2 SLP236 T01560133
PASD 180656Z AUTO 00000KT 10SM CLR 16/13 A3023 RMK AO2 SLP240 T01560133
PASD 180556Z AUTO 03005KT 10SM CLR 17/13 A3023 RMK AO2 SLP239 T01720133 10206 20172 56008
PASD 180456Z AUTO 04005KT 10SM CLR 18/14 A3024 RMK AO2 SLP242 T01780139
PASD 180356Z AUTO 03010KT 10SM CLR 18/14 A3025 RMK AO2 SLP244 T01830139
PASD 180301Z AUTO 04007KT 10SM CLR 19/13 A3025 RMK AO2
PASD 180256Z 03007KT 10SM CLR 19/13 A3026 RMK AO2 SLP248 LAST T01890133 56013
PASD 180251Z 02007KT 10SM CLR 19/13 A3026 RMK AO2 LAST
PASD 180250Z 02007KT 10SM CLR 19/13 A3026 RMK AO2 LAST
PASD 180156Z 02006KT 10SM CLR 21/12 A3026 RMK AO2 SLP250 T02060122
PASD 180152Z 03006KT 10SM CLR 21/12 A3027 RMK AO2
PASD 180056Z 02008KT 10SM CLR 21/12 A3028 RMK AO2 SLP256 T02060117
PASD 180051Z 02008KT 10SM CLR 20/12 A3028 RMK AO2
PASD 172357Z 02008KT 10SM CLR 19/12 A3029 RMK AO2
PASD 172356Z 02009KT 10SM CLR 19/12 A3029 RMK AO2 SLP261 T01940122 10200 20156 58016
PASD 172351Z 02007KT 10SM CLR 19/12 A3030 RMK AO2
PASD 172252Z 03008KT 10SM CLR 18/11 A3031 RMK AO2
PASD 172156Z 36004KT 10SM CLR 18/11 A3033 RMK AO2 SLP272 T01830106
PASD 172151Z 03003KT 10SM CLR 18/11 A3033 RMK AO2
PASD 172056Z 03006KT 10SM CLR 16/10 A3034 RMK AO2 SLP277 T01610100 58006
PASD 172052Z 03007KT 10SM CLR 16/10 A3034 RMK AO2
PASD 171956Z 35013KT 10SM CLR 17/11 A3035 RMK AO2 SLP279 T01670106
PASD 171954Z 36012KT 10SM CLR 17/11 A3035 RMK AO2
PASD 171856Z 01011KT 10SM FEW032 17/11 A3036 RMK AO2 SLP282 T01670106
PASD 171851Z 35012KT 10SM FEW032 17/11 A3036 RMK AO2
PASD 171756Z 36008KT 10SM FEW032 16/11 A3036 RMK AO2 SLP283 T01560106 10156 20133 56007
PASD 171712Z 35015KT 10SM FEW032 15/11 A3036 RMK AO2
PASD 171656Z 36013KT 10SM CLR 15/10 A3037 RMK AO2 SLP285 T01500100
PASD 171651Z 35014KT 10SM CLR 15/10 A3037 RMK AO2
PASD 171557Z 34009KT 10SM CLR 14/09 A3037 RMK AO2
PASD 171556Z 33009KT 10SM CLR 14/09 A3037 RMK AO2 SLP288 T01440094
PASD 171506Z 35009KT 10SM CLR 15/08 A3038 RMK AO2
PASD 171456Z AUTO 36012KT 10SM CLR 15/08 A3038 RMK AO2 SLP290 T01500083 58009
PASD 171356Z AUTO 00000KT 10SM CLR 13/09 A3040 RMK AO2 SLP296 T01330094
PASD 171256Z AUTO 33005KT 10SM CLR 14/09 A3040 RMK AO2 SLP298 T01440089
PASD 171156Z AUTO 34005KT 10SM CLR 15/09 A3041 RMK AO2 SLP299 7//// T01500089 10172 20144 58007
PASD 171056Z AUTO 36005KT 10SM CLR 15/09 A3042 RMK AO2 SLP302 T01500094
PASD 170956Z AUTO 01007KT 10SM CLR 15/09 A3042 RMK AO2 SLP304 T01500094
PASD 170856Z AUTO VRB04KT 10SM CLR 16/10 A3043 RMK AO2 SLP306 T01560100 402060128 58004
PASD 170756Z AUTO 36008KT 10SM CLR 16/11 A3043 RMK AO2 SLP307 T01610106
PASD 170456Z AUTO 36007KT 10SM CLR 18/12 A3045 RMK AO2 SLP312 T01830122
PASD 170356Z AUTO 03003KT 10SM CLR 19/12 A3046 RMK AO2 SLP317 T01940122
PASD 170311Z AUTO 03007KT 10SM CLR 20/12 A3046 RMK AO2
PASD 170256Z 03007KT 10SM CLR 20/12 A3047 RMK AO2 SLP319 LAST T02000122 56009